Terminal Aerodrome Forecast
Issued by NWS Sioux Falls, SD

Home | Current Version | Previous Version | Text Only | Print | Product List | Glossary On
Versions: 1 2 3 4 5 6 7 8 9 10 11 12 13 14 15 16 17 18 19 20
653
FTUS43 KFSD 032109 AAD
TAFHON
TAF AMD
KHON 032109Z 0321/0418 16013G18KT P6SM BKN006
     FM032300 16013G18KT P6SM SCT008 SCT200
     FM040100 17011KT P6SM SCT200
     FM040500 19007KT P6SM BKN110
     FM040800 22007KT P6SM BKN050
     FM041600 26008KT P6SM SCT110=

USA.gov is the U.S. government's official web portal to all federal, state and local government web resources and services.